createdAt,value
2018-04-23T00:00:32.585Z,15.30
2018-04-23T00:03:00.192Z,15.30
2018-04-23T00:05:27.793Z,15.30
2018-04-23T00:07:55.364Z,15.30
2018-04-23T00:10:22.950Z,15.30
2018-04-23T00:12:50.549Z,15.30
2018-04-23T00:15:18.115Z,15.30
2018-04-23T00:17:45.702Z,15.20
2018-04-23T00:20:14.023Z,15.30
2018-04-23T00:22:41.624Z,15.30
2018-04-23T00:25:09.995Z,15.30
2018-04-23T00:27:37.616Z,15.30
2018-04-23T00:30:05.215Z,15.30
2018-04-23T00:32:32.801Z,15.40
2018-04-23T00:35:01.145Z,15.60
2018-04-23T00:37:28.751Z,15.60
2018-04-23T00:39:56.328Z,15.70
2018-04-23T00:42:23.955Z,15.80
2018-04-23T00:44:52.296Z,16.20
2018-04-23T00:47:19.915Z,16.20
2018-04-23T00:49:47.720Z,16.40
2018-04-23T00:52:15.314Z,16.50
2018-04-23T00:54:42.892Z,16.20
2018-04-23T00:57:11.257Z,15.50
2018-04-23T00:59:38.883Z,15.50
2018-04-23T01:02:06.427Z,15.40
2018-04-23T01:04:34.105Z,15.10
2018-04-23T01:07:01.667Z,15.00
2018-04-23T01:09:29.239Z,15.00
2018-04-23T01:11:56.809Z,15.00
2018-04-23T01:14:24.392Z,15.00
2018-04-23T01:16:52.746Z,15.00
2018-04-23T01:19:20.344Z,14.90
2018-04-23T01:21:48.697Z,15.00
2018-04-23T01:24:16.284Z,14.90
2018-04-23T01:26:44.664Z,15.00
2018-04-23T01:29:13.009Z,15.00
2018-04-23T01:31:40.579Z,15.00
2018-04-23T01:34:08.197Z,15.00
2018-04-23T01:36:35.783Z,15.00
2018-04-23T01:39:03.374Z,15.00
2018-04-23T01:41:31.748Z,14.90
2018-04-23T01:43:59.340Z,14.90
2018-04-23T01:46:26.948Z,14.90
2018-04-23T01:48:54.515Z,14.90
2018-04-23T01:51:22.133Z,14.80
2018-04-23T01:53:49.728Z,14.80
2018-04-23T01:56:17.362Z,14.70
2018-04-23T02:01:18.878Z,14.60
2018-04-23T02:03:46.481Z,14.50
2018-04-23T02:06:14.071Z,14.50
2018-04-23T02:08:42.618Z,14.50
2018-04-23T02:11:10.961Z,14.50
2018-04-23T02:13:38.558Z,14.40
2018-04-23T02:16:06.984Z,14.50
2018-04-23T02:18:35.290Z,14.50
2018-04-23T02:21:02.898Z,14.40
2018-04-23T02:23:30.476Z,14.50
2018-04-23T02:25:58.068Z,14.50
2018-04-23T02:30:59.862Z,14.40
2018-04-23T02:33:30.059Z,14.40
2018-04-23T02:35:58.295Z,14.40
2018-04-23T02:38:26.929Z,14.50
2018-04-23T02:40:56.301Z,14.50
2018-04-23T02:43:23.980Z,14.50
2018-04-23T02:45:51.579Z,14.50
2018-04-23T02:48:20.836Z,14.40
2018-04-23T02:50:48.409Z,14.40
2018-04-23T02:53:16.004Z,14.40
2018-04-23T02:55:44.359Z,14.40
2018-04-23T02:58:11.960Z,14.40
2018-04-23T03:00:40.391Z,14.40
2018-04-23T03:03:07.984Z,14.40
2018-04-23T03:05:36.407Z,14.50
2018-04-23T03:08:04.000Z,14.50
2018-04-23T03:10:32.245Z,14.50
2018-04-23T03:13:02.129Z,14.60
2018-04-23T03:15:30.968Z,14.50
2018-04-23T03:17:58.579Z,14.50
2018-04-23T03:20:26.915Z,14.60
2018-04-23T03:22:55.312Z,14.50
2018-04-23T03:25:22.894Z,14.60
2018-04-23T03:27:52.917Z,14.50
2018-04-23T03:30:21.280Z,14.50
2018-04-23T03:32:49.640Z,14.50
2018-04-23T03:35:18.046Z,14.50
2018-04-23T03:37:47.272Z,14.60
2018-04-23T03:40:15.237Z,14.50
2018-04-23T03:55:43.072Z,14.60
2018-04-23T03:58:10.675Z,14.50
2018-04-23T04:00:39.527Z,14.50
2018-04-23T04:03:07.108Z,14.50
2018-04-23T04:05:34.791Z,14.60
2018-04-23T04:08:02.368Z,14.60
2018-04-23T04:10:29.997Z,14.60
2018-04-23T04:13:09.518Z,14.70
2018-04-23T04:15:49.488Z,14.70
2018-04-23T04:18:37.876Z,14.70
2018-04-23T04:21:05.497Z,14.70
2018-04-23T04:23:33.136Z,14.70
2018-04-23T04:26:01.504Z,14.70
2018-04-23T04:28:29.059Z,14.70
2018-04-23T04:30:57.532Z,14.70
2018-04-23T04:33:25.108Z,14.70
2018-04-23T04:35:52.760Z,14.70
2018-04-23T04:38:20.360Z,14.70
2018-04-23T04:40:48.759Z,14.70
2018-04-23T04:43:16.357Z,14.70
2018-04-23T04:45:43.980Z,14.70
2018-04-23T04:48:11.600Z,14.70
2018-04-23T04:50:39.159Z,14.70
2018-04-23T04:53:07.487Z,14.70
2018-04-23T04:55:35.109Z,14.70
2018-04-23T04:58:02.683Z,14.60
2018-04-23T05:00:31.028Z,14.60
2018-04-23T05:02:58.650Z,14.60
2018-04-23T05:05:26.211Z,14.50
2018-04-23T05:07:53.871Z,14.60
2018-04-23T05:10:21.626Z,14.50
2018-04-23T05:12:49.212Z,14.50
2018-04-23T05:15:16.820Z,14.50
2018-04-23T05:17:44.409Z,14.50
2018-04-23T05:20:12.020Z,14.50
2018-04-23T05:22:39.585Z,14.50
2018-04-23T05:25:07.260Z,14.50
2018-04-23T05:27:34.898Z,14.50
2018-04-23T05:30:02.564Z,14.50
2018-04-23T05:32:30.070Z,14.50
2018-04-23T05:34:58.475Z,14.50
2018-04-23T05:37:26.252Z,14.50
2018-04-23T05:39:53.867Z,14.50
2018-04-23T05:42:21.430Z,14.50
2018-04-23T05:44:49.807Z,14.50
2018-04-23T05:47:17.380Z,14.50
2018-04-23T05:49:45.740Z,14.60
2018-04-23T05:52:13.333Z,14.60
2018-04-23T05:54:41.734Z,14.90
2018-04-23T05:57:09.315Z,14.90
2018-04-23T05:59:36.921Z,15.10
2018-04-23T06:02:05.307Z,15.20
2018-04-23T06:04:33.643Z,15.10
2018-04-23T06:07:01.253Z,15.10
2018-04-23T06:09:28.847Z,15.20
2018-04-23T06:11:56.453Z,15.20
2018-04-23T06:14:24.853Z,15.50
2018-04-23T06:16:52.436Z,15.50
2018-04-23T06:19:20.016Z,15.80
2018-04-23T06:21:47.626Z,16.00
2018-04-23T06:24:15.990Z,16.20
2018-04-23T06:26:43.593Z,16.20
2018-04-23T06:29:11.181Z,16.80
2018-04-23T06:31:38.768Z,17.60
2018-04-23T06:34:07.080Z,18.10
2018-04-23T06:36:35.452Z,18.70
2018-04-23T06:39:04.437Z,18.20
2018-04-23T06:41:32.015Z,18.20
2018-04-23T06:43:59.596Z,18.10
2018-04-23T06:46:27.253Z,17.70
2018-04-23T06:48:54.864Z,17.60
2018-04-23T06:51:22.441Z,17.30
2018-04-23T06:53:50.786Z,16.70
2018-04-23T06:56:18.452Z,16.60
2018-04-23T06:58:46.267Z,16.60
2018-04-23T07:01:14.608Z,16.50
2018-04-23T07:03:42.242Z,16.50
2018-04-23T07:06:09.812Z,16.50
2018-04-23T07:08:37.428Z,16.80
2018-04-23T07:11:05.770Z,17.00
2018-04-23T07:13:33.373Z,17.00
2018-04-23T07:16:01.773Z,17.70
2018-04-23T07:18:29.985Z,17.70
2018-04-23T07:20:58.165Z,18.00
2018-04-23T07:23:25.791Z,18.30
2018-04-23T07:25:53.413Z,18.20
2018-04-23T07:28:22.294Z,18.00
2018-04-23T07:30:50.012Z,18.00
2018-04-23T07:33:18.376Z,17.60
2018-04-23T07:35:45.978Z,17.50
2018-04-23T07:38:13.572Z,17.20
2018-04-23T07:40:42.082Z,16.80
2018-04-23T07:43:10.406Z,16.90
2018-04-23T07:45:38.016Z,16.80
2018-04-23T07:48:05.592Z,17.00
2018-04-23T07:50:33.209Z,17.10
2018-04-23T07:53:00.824Z,17.10
2018-04-23T07:55:28.458Z,17.00
2018-04-23T07:57:56.095Z,16.80
2018-04-23T08:00:23.689Z,16.70
2018-04-23T08:02:51.260Z,17.10
2018-04-23T08:05:18.865Z,17.50
2018-04-23T08:07:46.457Z,17.40
2018-04-23T08:10:14.837Z,18.00
2018-04-23T08:12:43.220Z,18.60
2018-04-23T08:15:11.555Z,18.70
2018-04-23T08:17:39.143Z,18.70
2018-04-23T08:20:07.516Z,17.70
2018-04-23T08:22:35.125Z,17.70
2018-04-23T08:25:02.708Z,17.60
2018-04-23T08:27:30.320Z,17.70
2018-04-23T08:29:58.681Z,18.70
2018-04-23T08:32:26.268Z,18.70
2018-04-23T08:34:53.854Z,19.50
2018-04-23T08:37:21.451Z,19.30
2018-04-23T08:39:49.055Z,19.10
2018-04-23T08:42:17.421Z,20.90
2018-04-23T08:44:45.779Z,21.60
2018-04-23T08:47:13.381Z,21.60
2018-04-23T08:49:40.964Z,21.90
2018-04-23T08:52:08.541Z,21.90
2018-04-23T08:54:36.123Z,22.00
2018-04-23T08:57:03.710Z,21.80
2018-04-23T08:59:32.161Z,22.20
2018-04-23T09:01:59.725Z,22.20
2018-04-23T09:04:27.312Z,22.40
2018-04-23T09:06:54.873Z,22.80
2018-04-23T09:09:23.234Z,23.00
2018-04-23T09:11:50.854Z,23.00
2018-04-23T09:14:18.410Z,24.60
2018-04-23T09:16:46.055Z,24.90
2018-04-23T09:19:13.668Z,25.10
2018-04-23T09:21:41.255Z,24.90
2018-04-23T09:24:09.617Z,24.80
2018-04-23T09:26:37.197Z,24.80
2018-04-23T09:29:05.557Z,22.20
2018-04-23T09:31:33.212Z,22.10
2018-04-23T09:34:00.748Z,20.80
2018-04-23T09:36:28.335Z,20.60
2018-04-23T09:38:56.018Z,21.60
2018-04-23T09:41:23.548Z,21.70
2018-04-23T09:43:51.118Z,21.60
2018-04-23T09:46:19.428Z,21.40
2018-04-23T09:48:47.785Z,23.00
2018-04-23T09:51:15.409Z,23.00
2018-04-23T09:53:42.998Z,22.10
2018-04-23T09:56:10.628Z,21.70
2018-04-23T09:58:38.216Z,20.90
2018-04-23T10:01:11.465Z,20.80
2018-04-23T10:03:41.940Z,21.10
2018-04-23T10:06:09.741Z,21.90
2018-04-23T10:08:37.259Z,21.40
2018-04-23T10:11:05.696Z,20.20
2018-04-23T10:13:34.010Z,20.10
2018-04-23T10:16:01.583Z,20.10
2018-04-23T10:18:29.164Z,20.80
2018-04-23T10:20:56.772Z,20.80
2018-04-23T10:23:24.345Z,20.80
2018-04-23T10:25:51.942Z,21.70
2018-04-23T10:28:19.532Z,21.80
2018-04-23T10:30:47.868Z,20.80
2018-04-23T10:33:15.443Z,20.80
2018-04-23T10:35:44.792Z,20.20
2018-04-23T10:38:12.391Z,19.90
2018-04-23T10:40:39.957Z,19.70
2018-04-23T10:43:07.553Z,19.10
2018-04-23T10:45:35.901Z,19.60
2018-04-23T10:48:03.542Z,19.60
2018-04-23T10:50:31.126Z,20.40
2018-04-23T10:52:58.717Z,20.90
2018-04-23T10:55:27.031Z,21.80
2018-04-23T10:57:54.642Z,21.80
2018-04-23T11:00:22.197Z,21.70
2018-04-23T11:02:49.814Z,22.20
2018-04-23T11:05:17.408Z,22.10
2018-04-23T11:07:45.003Z,22.50
2018-04-23T11:10:13.337Z,23.70
2018-04-23T11:12:40.906Z,23.70
2018-04-23T11:15:08.495Z,23.60
2018-04-23T11:17:36.084Z,23.20
2018-04-23T11:20:03.712Z,23.10
2018-04-23T11:22:31.292Z,22.80
2018-04-23T11:24:59.664Z,23.10
2018-04-23T11:27:28.001Z,23.10
2018-04-23T11:29:55.575Z,23.10
2018-04-23T11:32:23.172Z,22.90
2018-04-23T11:34:51.519Z,22.30
2018-04-23T11:37:19.108Z,22.30
2018-04-23T11:39:47.525Z,21.00
2018-04-23T11:42:15.095Z,21.00
2018-04-23T11:44:42.696Z,21.00
2018-04-23T11:47:10.461Z,21.80
2018-04-23T11:49:38.031Z,22.00
2018-04-23T11:52:06.660Z,21.40
2018-04-23T11:54:34.227Z,21.40
2018-04-23T11:57:01.814Z,20.70
2018-04-23T11:59:29.385Z,20.10
2018-04-23T12:01:57.029Z,20.00
2018-04-23T12:04:24.613Z,19.50
2018-04-23T12:06:52.189Z,19.30
2018-04-23T12:09:20.588Z,19.40
2018-04-23T12:11:48.176Z,19.30
2018-04-23T12:14:15.751Z,19.70
2018-04-23T12:16:43.333Z,19.80
2018-04-23T12:19:10.902Z,19.80
2018-04-23T12:21:38.524Z,20.10
2018-04-23T12:24:06.285Z,20.70
2018-04-23T12:26:33.878Z,21.00
2018-04-23T12:29:01.469Z,21.10
2018-04-23T12:31:29.812Z,21.50
2018-04-23T12:33:57.460Z,21.40
2018-04-23T12:36:25.031Z,21.70
2018-04-23T12:38:52.633Z,21.40
2018-04-23T12:41:21.064Z,21.10
2018-04-23T12:43:48.680Z,21.10
2018-04-23T12:46:17.068Z,21.10
2018-04-23T12:48:44.608Z,21.10
2018-04-23T12:51:12.946Z,21.90
2018-04-23T12:53:40.552Z,21.90
2018-04-23T12:56:08.904Z,21.60
2018-04-23T12:58:36.491Z,21.60
2018-04-23T13:01:04.849Z,21.50
2018-04-23T13:03:32.434Z,21.50
2018-04-23T13:06:00.765Z,22.00
2018-04-23T13:08:28.385Z,22.00
2018-04-23T13:10:56.729Z,21.40
2018-04-23T13:13:24.300Z,21.40
2018-04-23T13:15:51.907Z,21.80
2018-04-23T13:18:19.508Z,22.00
2018-04-23T13:20:47.105Z,22.00
2018-04-23T13:23:15.421Z,22.10
2018-04-23T13:25:43.048Z,22.10
2018-04-23T13:28:11.379Z,21.50
2018-04-23T13:30:40.040Z,21.40
2018-04-23T13:33:07.593Z,21.50
2018-04-23T13:35:35.193Z,21.20
2018-04-23T13:38:02.864Z,21.30
2018-04-23T13:40:30.428Z,21.50
2018-04-23T13:42:58.007Z,21.80
2018-04-23T13:45:26.431Z,21.20
2018-04-23T13:47:54.004Z,21.20
2018-04-23T13:50:21.656Z,20.80
2018-04-23T13:52:49.214Z,20.90
2018-04-23T13:55:16.796Z,21.20
2018-04-23T13:57:44.418Z,21.40
2018-04-23T14:00:12.813Z,20.80
2018-04-23T14:02:40.440Z,20.80
2018-04-23T14:05:08.783Z,21.30
2018-04-23T14:07:36.353Z,21.30
2018-04-23T14:10:03.917Z,21.40
2018-04-23T14:12:31.544Z,21.00
2018-04-23T14:14:59.952Z,20.50
2018-04-23T14:17:27.529Z,20.40
2018-04-23T14:19:55.131Z,20.40
2018-04-23T14:22:22.731Z,20.50
2018-04-23T14:24:50.335Z,20.40
2018-04-23T14:27:18.705Z,20.20
2018-04-23T14:29:46.286Z,20.20
2018-04-23T14:32:13.872Z,20.50
2018-04-23T14:34:41.471Z,20.70
2018-04-23T14:37:09.040Z,20.80
2018-04-23T14:39:36.652Z,20.80
2018-04-23T14:42:04.256Z,20.80
2018-04-23T14:44:31.852Z,20.50
2018-04-23T14:59:59.483Z,20.50
2018-04-23T15:02:27.112Z,20.30
2018-04-23T15:04:54.776Z,20.10
2018-04-23T15:07:22.347Z,19.90
2018-04-23T15:09:49.936Z,19.90
2018-04-23T15:12:18.290Z,20.10
2018-04-23T15:14:45.866Z,20.10
2018-04-23T15:17:13.439Z,20.20
2018-04-23T15:19:41.133Z,20.20
2018-04-23T15:22:08.831Z,20.10
2018-04-23T15:24:36.425Z,19.80
2018-04-23T15:27:04.049Z,19.70
2018-04-23T15:29:31.687Z,19.50
2018-04-23T15:31:59.267Z,19.60
2018-04-23T15:34:26.852Z,19.60
2018-04-23T15:36:54.450Z,19.70
2018-04-23T15:39:22.803Z,19.80
2018-04-23T15:41:50.393Z,19.80
2018-04-23T15:44:17.970Z,19.80
2018-04-23T15:46:46.292Z,19.80
2018-04-23T15:49:13.889Z,19.60
2018-04-23T15:51:42.240Z,19.40
2018-04-23T15:54:09.848Z,19.40
2018-04-23T15:56:37.525Z,19.30
2018-04-23T15:59:05.092Z,19.30
2018-04-23T16:01:32.780Z,19.30
2018-04-23T16:04:00.430Z,19.40
2018-04-23T16:06:27.969Z,19.30
2018-04-23T16:08:56.311Z,19.50
2018-04-23T16:11:25.052Z,19.80
2018-04-23T16:13:52.665Z,19.80
2018-04-23T16:16:21.028Z,19.80
2018-04-23T16:18:48.600Z,19.80
2018-04-23T16:21:16.967Z,19.90
2018-04-23T16:23:44.615Z,19.90
2018-04-23T16:26:12.281Z,19.80
2018-04-23T16:28:39.897Z,19.70
2018-04-23T16:31:07.502Z,19.40
2018-04-23T16:33:35.140Z,19.10
2018-04-23T16:36:02.731Z,19.00
2018-04-23T16:38:30.324Z,18.70
2018-04-23T16:40:58.836Z,18.50
2018-04-23T16:43:26.409Z,18.40
2018-04-23T16:45:54.004Z,18.50
2018-04-23T16:48:21.556Z,18.30
2018-04-23T16:50:49.140Z,18.30
2018-04-23T16:53:16.715Z,18.10
2018-04-23T16:55:44.413Z,18.00
2018-04-23T16:58:11.980Z,17.90
2018-04-23T17:00:39.563Z,17.80
2018-04-23T17:03:07.257Z,17.70
2018-04-23T17:08:46.808Z,17.30
2018-04-23T17:11:14.392Z,17.30
2018-04-23T17:13:41.947Z,17.30
2018-04-23T17:16:10.324Z,17.30
2018-04-23T17:18:38.669Z,17.20
2018-04-23T17:21:06.314Z,17.30
2018-04-23T17:23:34.718Z,17.20
2018-04-23T17:26:02.353Z,17.10
2018-04-23T17:28:29.956Z,17.10
2018-04-23T17:30:57.637Z,17.00
2018-04-23T17:33:25.233Z,16.90
2018-04-23T17:35:52.819Z,16.90
2018-04-23T17:38:20.462Z,16.80
2018-04-23T17:40:48.051Z,16.70
2018-04-23T17:43:15.644Z,16.70
2018-04-23T17:45:43.999Z,16.50
2018-04-23T17:48:11.617Z,16.50
2018-04-23T17:50:39.187Z,16.40
2018-04-23T17:53:06.788Z,16.40
2018-04-23T17:55:34.417Z,16.20
2018-04-23T17:58:02.086Z,16.10
2018-04-23T18:00:29.674Z,16.00
2018-04-23T18:02:57.317Z,15.90
2018-04-23T18:05:24.938Z,15.80
2018-04-23T18:07:52.587Z,15.70
2018-04-23T18:10:20.146Z,15.70
2018-04-23T18:12:48.536Z,15.50
2018-04-23T18:15:16.129Z,15.50
2018-04-23T18:17:43.719Z,15.50
2018-04-23T18:20:11.340Z,15.40
2018-04-23T18:22:38.991Z,15.30
2018-04-23T18:25:06.582Z,15.20
2018-04-23T18:27:34.183Z,15.10
2018-04-23T18:30:02.550Z,14.90
2018-04-23T18:32:30.143Z,14.90
2018-04-23T18:34:57.721Z,14.80
2018-04-23T18:37:25.309Z,14.70
2018-04-23T18:39:52.958Z,14.60
2018-04-23T18:42:21.304Z,14.40
2018-04-23T18:44:48.941Z,14.40
2018-04-23T18:47:16.524Z,14.30
2018-04-23T18:49:44.912Z,14.10
2018-04-23T18:52:12.464Z,14.10
2018-04-23T18:54:40.831Z,14.10
2018-04-23T18:57:09.187Z,14.00
2018-04-23T18:59:36.791Z,14.00
2018-04-23T19:02:04.387Z,13.90
2018-04-23T19:04:32.012Z,13.80
2018-04-23T19:06:59.677Z,13.70
2018-04-23T19:09:27.274Z,13.70
2018-04-23T19:11:54.863Z,13.60
2018-04-23T19:14:22.440Z,13.50
2018-04-23T19:16:50.919Z,13.30
2018-04-23T19:19:18.516Z,13.40
2018-04-23T19:21:46.227Z,13.30
2018-04-23T19:26:48.384Z,13.20
2018-04-23T19:29:15.995Z,13.10
2018-04-23T19:31:44.382Z,13.00
2018-04-23T19:34:12.747Z,12.90
2018-04-23T19:36:40.391Z,12.90
2018-04-23T19:39:07.983Z,12.80
2018-04-23T19:41:36.350Z,12.80
2018-04-23T19:44:03.968Z,12.70
2018-04-23T19:46:31.549Z,12.70
2018-04-23T19:49:00.138Z,12.60
2018-04-23T19:51:27.735Z,12.60
2018-04-23T19:53:56.103Z,12.50
2018-04-23T19:56:24.460Z,12.50
2018-04-23T19:58:52.072Z,12.50
2018-04-23T20:01:19.653Z,12.40
2018-04-23T20:03:47.296Z,12.40
2018-04-23T20:06:14.895Z,12.30
2018-04-23T20:08:42.516Z,12.30
2018-04-23T20:11:10.093Z,12.30
2018-04-23T20:13:38.520Z,12.30
2018-04-23T20:16:06.124Z,12.20
2018-04-23T20:18:33.756Z,12.20
2018-04-23T20:21:01.333Z,12.20
2018-04-23T20:23:29.741Z,12.10
2018-04-23T20:25:57.380Z,12.10
2018-04-23T20:28:25.724Z,12.10
2018-04-23T20:30:53.367Z,12.10
2018-04-23T20:33:20.981Z,12.00
2018-04-23T20:35:48.571Z,11.90
2018-04-23T20:38:16.191Z,11.90
2018-04-23T20:40:44.564Z,11.80
2018-04-23T20:43:12.131Z,11.80
2018-04-23T20:45:40.604Z,11.70
2018-04-23T20:48:08.192Z,11.70
2018-04-23T20:50:36.587Z,11.70
2018-04-23T20:53:04.214Z,11.60
2018-04-23T20:55:31.824Z,11.60
2018-04-23T20:57:59.532Z,11.50
2018-04-23T21:00:27.107Z,11.50
2018-04-23T21:02:55.479Z,11.30
2018-04-23T21:05:23.847Z,11.20
2018-04-23T21:07:51.465Z,11.20
2018-04-23T21:10:19.071Z,11.20
2018-04-23T21:12:46.685Z,11.20
2018-04-23T21:15:14.292Z,11.10
2018-04-23T21:17:41.868Z,11.10
2018-04-23T21:20:10.217Z,11.00
2018-04-23T21:22:37.800Z,11.00
2018-04-23T21:25:05.399Z,11.00
2018-04-23T21:27:33.041Z,11.00
2018-04-23T21:30:01.466Z,10.90
2018-04-23T21:32:29.052Z,10.90
2018-04-23T21:34:56.672Z,10.90
2018-04-23T21:37:24.272Z,10.80
2018-04-23T21:39:51.876Z,10.80
2018-04-23T21:42:20.252Z,10.70
2018-04-23T21:44:48.601Z,10.60
2018-04-23T21:47:16.201Z,10.60
2018-04-23T21:49:44.575Z,10.60
2018-04-23T21:52:12.908Z,10.60
2018-04-23T21:54:40.505Z,10.50
2018-04-23T21:57:08.084Z,10.50
2018-04-23T21:59:35.709Z,10.50
2018-04-23T22:02:03.316Z,10.50
2018-04-23T22:04:31.649Z,10.40
2018-04-23T22:06:59.275Z,10.40
2018-04-23T22:09:26.897Z,10.40
2018-04-23T22:11:55.252Z,10.40
2018-04-23T22:14:22.876Z,10.40
2018-04-23T22:16:50.737Z,10.40
2018-04-23T22:19:18.330Z,10.30
2018-04-23T22:21:45.897Z,10.40
2018-04-23T22:24:13.468Z,10.30
2018-04-23T22:26:41.285Z,10.20
2018-04-23T22:29:08.847Z,10.10
2018-04-23T22:31:36.524Z,10.10
2018-04-23T22:34:04.807Z,10.00
2018-04-23T22:36:32.400Z,10.00
2018-04-23T22:38:59.964Z,10.00
2018-04-23T22:41:27.573Z,10.00
2018-04-23T22:43:55.164Z,10.00
2018-04-23T22:46:22.743Z,10.00
2018-04-23T22:48:50.498Z,9.90
2018-04-23T22:51:18.092Z,9.90
2018-04-23T22:53:46.452Z,9.90
2018-04-23T22:56:14.026Z,9.90
2018-04-23T22:58:42.423Z,9.90
2018-04-23T23:01:10.803Z,9.90
2018-04-23T23:03:38.373Z,9.90
2018-04-23T23:06:05.950Z,9.90
2018-04-23T23:08:33.548Z,9.80
2018-04-23T23:11:01.141Z,9.90
2018-04-23T23:13:29.496Z,9.80
2018-04-23T23:15:57.071Z,9.90
2018-04-23T23:18:25.448Z,9.90
2018-04-23T23:20:53.784Z,9.80
2018-04-23T23:23:21.403Z,9.80
2018-04-23T23:25:49.735Z,9.80
2018-04-23T23:28:17.754Z,9.80
2018-04-23T23:30:46.107Z,9.80
2018-04-23T23:33:13.733Z,9.80
2018-04-23T23:35:41.376Z,9.80
2018-04-23T23:38:09.448Z,9.80
2018-04-23T23:40:36.996Z,9.80
2018-04-23T23:43:04.573Z,9.80
2018-04-23T23:45:32.926Z,9.80
2018-04-23T23:48:01.312Z,9.80
2018-04-23T23:50:29.679Z,9.70
2018-04-23T23:52:58.008Z,9.70
2018-04-23T23:55:25.600Z,9.70
2018-04-23T23:57:53.154Z,9.70
